sensor_id;sensor_type;location;lat;lon;timestamp;P1;durP1;ratioP1;P2;durP2;ratioP2
5054;SDS011;13829;48.990;8.346;2024-01-25T00:01:02;12.90;;;4.47;;
5054;SDS011;13829;48.990;8.346;2024-01-25T00:03:30;15.87;;;4.37;;
5054;SDS011;13829;48.990;8.346;2024-01-25T00:05:57;13.30;;;4.30;;
5054;SDS011;13829;48.990;8.346;2024-01-25T00:08:25;21.27;;;5.40;;
5054;SDS011;13829;48.990;8.346;2024-01-25T00:10:52;17.10;;;4.97;;
5054;SDS011;13829;48.990;8.346;2024-01-25T00:13:19;14.33;;;4.77;;
5054;SDS011;13829;48.990;8.346;2024-01-25T00:15:46;19.93;;;4.77;;
5054;SDS011;13829;48.990;8.346;2024-01-25T00:18:13;17.90;;;4.33;;
5054;SDS011;13829;48.990;8.346;2024-01-25T00:20:41;16.30;;;4.70;;
5054;SDS011;13829;48.990;8.346;2024-01-25T00:23:08;11.13;;;4.50;;
5054;SDS011;13829;48.990;8.346;2024-01-25T00:25:35;13.40;;;4.30;;
5054;SDS011;13829;48.990;8.346;2024-01-25T00:28:02;12.87;;;4.33;;
5054;SDS011;13829;48.990;8.346;2024-01-25T00:30:29;14.70;;;5.03;;
5054;SDS011;13829;48.990;8.346;2024-01-25T00:32:56;23.07;;;4.70;;
5054;SDS011;13829;48.990;8.346;2024-01-25T00:35:24;18.20;;;4.67;;
5054;SDS011;13829;48.990;8.346;2024-01-25T00:37:54;14.47;;;4.03;;
5054;SDS011;13829;48.990;8.346;2024-01-25T00:40:22;19.23;;;5.00;;
5054;SDS011;13829;48.990;8.346;2024-01-25T00:42:49;15.53;;;4.73;;
5054;SDS011;13829;48.990;8.346;2024-01-25T00:45:19;15.27;;;4.13;;
5054;SDS011;13829;48.990;8.346;2024-01-25T00:47:48;22.47;;;4.33;;
5054;SDS011;13829;48.990;8.346;2024-01-25T00:50:16;16.97;;;4.87;;
5054;SDS011;13829;48.990;8.346;2024-01-25T00:52:46;15.90;;;4.23;;
5054;SDS011;13829;48.990;8.346;2024-01-25T00:55:15;17.70;;;3.73;;
5054;SDS011;13829;48.990;8.346;2024-01-25T00:57:43;16.63;;;5.40;;
5054;SDS011;13829;48.990;8.346;2024-01-25T01:00:10;15.53;;;4.33;;
5054;SDS011;13829;48.990;8.346;2024-01-25T01:02:39;16.50;;;4.63;;
5054;SDS011;13829;48.990;8.346;2024-01-25T01:05:09;13.63;;;4.67;;
5054;SDS011;13829;48.990;8.346;2024-01-25T01:07:38;16.20;;;5.10;;
5054;SDS011;13829;48.990;8.346;2024-01-25T01:10:06;14.67;;;4.17;;
5054;SDS011;13829;48.990;8.346;2024-01-25T01:12:35;17.43;;;4.90;;
5054;SDS011;13829;48.990;8.346;2024-01-25T01:15:03;10.23;;;4.03;;
5054;SDS011;13829;48.990;8.346;2024-01-25T01:17:31;20.27;;;5.13;;
5054;SDS011;13829;48.990;8.346;2024-01-25T01:19:58;19.67;;;5.07;;
5054;SDS011;13829;48.990;8.346;2024-01-25T01:22:25;18.63;;;4.87;;
5054;SDS011;13829;48.990;8.346;2024-01-25T01:24:52;13.27;;;4.70;;
5054;SDS011;13829;48.990;8.346;2024-01-25T01:27:19;11.97;;;4.17;;
5054;SDS011;13829;48.990;8.346;2024-01-25T01:29:48;15.57;;;4.73;;
5054;SDS011;13829;48.990;8.346;2024-01-25T01:32:15;13.43;;;4.20;;
5054;SDS011;13829;48.990;8.346;2024-01-25T01:34:42;19.17;;;4.70;;
5054;SDS011;13829;48.990;8.346;2024-01-25T01:37:09;13.53;;;4.37;;
5054;SDS011;13829;48.990;8.346;2024-01-25T01:39:36;15.67;;;4.40;;
5054;SDS011;13829;48.990;8.346;2024-01-25T01:42:03;18.50;;;5.03;;
5054;SDS011;13829;48.990;8.346;2024-01-25T01:44:30;13.57;;;4.47;;
5054;SDS011;13829;48.990;8.346;2024-01-25T01:46:58;14.40;;;4.83;;
5054;SDS011;13829;48.990;8.346;2024-01-25T01:49:28;16.37;;;4.23;;
5054;SDS011;13829;48.990;8.346;2024-01-25T01:51:55;15.17;;;4.47;;
5054;SDS011;13829;48.990;8.346;2024-01-25T01:54:22;16.00;;;3.97;;
5054;SDS011;13829;48.990;8.346;2024-01-25T01:56:51;13.03;;;4.03;;
5054;SDS011;13829;48.990;8.346;2024-01-25T01:59:19;11.07;;;3.83;;
5054;SDS011;13829;48.990;8.346;2024-01-25T02:01:46;17.93;;;4.70;;
5054;SDS011;13829;48.990;8.346;2024-01-25T02:04:15;16.90;;;4.13;;
5054;SDS011;13829;48.990;8.346;2024-01-25T02:06:41;14.80;;;4.47;;
5054;SDS011;13829;48.990;8.346;2024-01-25T02:09:10;14.63;;;4.47;;
5054;SDS011;13829;48.990;8.346;2024-01-25T02:11:37;16.77;;;4.90;;
5054;SDS011;13829;48.990;8.346;2024-01-25T02:14:04;17.53;;;4.53;;
5054;SDS011;13829;48.990;8.346;2024-01-25T02:16:35;23.40;;;5.80;;
5054;SDS011;13829;48.990;8.346;2024-01-25T02:19:02;14.77;;;4.43;;
5054;SDS011;13829;48.990;8.346;2024-01-25T02:21:34;18.10;;;5.13;;
5054;SDS011;13829;48.990;8.346;2024-01-25T02:24:02;17.17;;;4.57;;
5054;SDS011;13829;48.990;8.346;2024-01-25T02:26:29;12.07;;;3.93;;
5054;SDS011;13829;48.990;8.346;2024-01-25T02:28:56;17.70;;;4.83;;
5054;SDS011;13829;48.990;8.346;2024-01-25T02:31:23;19.33;;;5.27;;
5054;SDS011;13829;48.990;8.346;2024-01-25T02:33:50;12.53;;;4.43;;
5054;SDS011;13829;48.990;8.346;2024-01-25T02:36:17;11.07;;;4.40;;
5054;SDS011;13829;48.990;8.346;2024-01-25T02:38:44;16.27;;;4.20;;
5054;SDS011;13829;48.990;8.346;2024-01-25T02:41:12;14.20;;;4.53;;
5054;SDS011;13829;48.990;8.346;2024-01-25T02:43:39;15.47;;;5.27;;
5054;SDS011;13829;48.990;8.346;2024-01-25T02:46:07;13.70;;;4.93;;
5054;SDS011;13829;48.990;8.346;2024-01-25T02:48:34;15.43;;;4.30;;
5054;SDS011;13829;48.990;8.346;2024-01-25T02:51:01;14.83;;;4.87;;
5054;SDS011;13829;48.990;8.346;2024-01-25T02:53:28;17.10;;;4.50;;
5054;SDS011;13829;48.990;8.346;2024-01-25T02:55:55;16.53;;;4.00;;
5054;SDS011;13829;48.990;8.346;2024-01-25T02:58:23;12.63;;;4.57;;
5054;SDS011;13829;48.990;8.346;2024-01-25T03:00:50;9.60;;;3.50;;
5054;SDS011;13829;48.990;8.346;2024-01-25T03:03:19;18.37;;;4.00;;
5054;SDS011;13829;48.990;8.346;2024-01-25T03:05:46;14.47;;;4.30;;
5054;SDS011;13829;48.990;8.346;2024-01-25T03:08:13;17.03;;;4.57;;
5054;SDS011;13829;48.990;8.346;2024-01-25T03:10:39;16.57;;;4.67;;
5054;SDS011;13829;48.990;8.346;2024-01-25T03:13:06;12.43;;;4.47;;
5054;SDS011;13829;48.990;8.346;2024-01-25T03:15:35;20.77;;;5.17;;
5054;SDS011;13829;48.990;8.346;2024-01-25T03:18:02;13.30;;;3.60;;
5054;SDS011;13829;48.990;8.346;2024-01-25T03:20:29;16.53;;;4.47;;
5054;SDS011;13829;48.990;8.346;2024-01-25T03:22:56;18.57;;;5.33;;
5054;SDS011;13829;48.990;8.346;2024-01-25T03:25:23;20.00;;;5.13;;
5054;SDS011;13829;48.990;8.346;2024-01-25T03:27:50;18.53;;;5.10;;
5054;SDS011;13829;48.990;8.346;2024-01-25T03:30:17;16.67;;;4.73;;
5054;SDS011;13829;48.990;8.346;2024-01-25T03:32:46;17.40;;;4.60;;
5054;SDS011;13829;48.990;8.346;2024-01-25T03:35:13;12.40;;;4.03;;
5054;SDS011;13829;48.990;8.346;2024-01-25T03:37:40;15.17;;;4.27;;
5054;SDS011;13829;48.990;8.346;2024-01-25T03:40:07;16.20;;;4.83;;
5054;SDS011;13829;48.990;8.346;2024-01-25T03:42:35;15.20;;;4.40;;
5054;SDS011;13829;48.990;8.346;2024-01-25T03:45:02;17.40;;;4.73;;
5054;SDS011;13829;48.990;8.346;2024-01-25T03:47:30;17.17;;;5.10;;
5054;SDS011;13829;48.990;8.346;2024-01-25T03:49:58;14.63;;;4.77;;
5054;SDS011;13829;48.990;8.346;2024-01-25T03:52:25;15.00;;;4.60;;
5054;SDS011;13829;48.990;8.346;2024-01-25T03:54:55;11.73;;;4.20;;
5054;SDS011;13829;48.990;8.346;2024-01-25T03:57:22;16.63;;;4.43;;
5054;SDS011;13829;48.990;8.346;2024-01-25T03:59:48;12.93;;;4.97;;
5054;SDS011;13829;48.990;8.346;2024-01-25T04:02:15;19.20;;;4.63;;
5054;SDS011;13829;48.990;8.346;2024-01-25T04:04:43;15.40;;;4.60;;
5054;SDS011;13829;48.990;8.346;2024-01-25T04:07:11;21.70;;;5.13;;
5054;SDS011;13829;48.990;8.346;2024-01-25T04:09:38;12.93;;;3.87;;
5054;SDS011;13829;48.990;8.346;2024-01-25T04:12:06;17.67;;;4.80;;
5054;SDS011;13829;48.990;8.346;2024-01-25T04:14:33;16.77;;;4.40;;
5054;SDS011;13829;48.990;8.346;2024-01-25T04:17:00;12.93;;;4.10;;
5054;SDS011;13829;48.990;8.346;2024-01-25T04:19:27;18.70;;;4.80;;
5054;SDS011;13829;48.990;8.346;2024-01-25T04:21:53;20.90;;;4.80;;
5054;SDS011;13829;48.990;8.346;2024-01-25T04:24:22;13.10;;;4.40;;
5054;SDS011;13829;48.990;8.346;2024-01-25T04:26:49;18.30;;;4.97;;
5054;SDS011;13829;48.990;8.346;2024-01-25T04:29:16;13.70;;;4.13;;
5054;SDS011;13829;48.990;8.346;2024-01-25T04:31:43;13.00;;;4.10;;
5054;SDS011;13829;48.990;8.346;2024-01-25T04:34:10;13.53;;;4.10;;
5054;SDS011;13829;48.990;8.346;2024-01-25T04:36:39;16.03;;;4.43;;
5054;SDS011;13829;48.990;8.346;2024-01-25T04:39:06;15.97;;;4.87;;
5054;SDS011;13829;48.990;8.346;2024-01-25T04:41:34;18.50;;;5.00;;
5054;SDS011;13829;48.990;8.346;2024-01-25T04:44:02;16.20;;;4.77;;
5054;SDS011;13829;48.990;8.346;2024-01-25T04:46:30;13.43;;;3.97;;
5054;SDS011;13829;48.990;8.346;2024-01-25T04:49:00;14.67;;;4.70;;
5054;SDS011;13829;48.990;8.346;2024-01-25T04:51:27;18.73;;;4.73;;
5054;SDS011;13829;48.990;8.346;2024-01-25T04:53:54;12.03;;;4.10;;
5054;SDS011;13829;48.990;8.346;2024-01-25T04:56:21;14.77;;;5.00;;
5054;SDS011;13829;48.990;8.346;2024-01-25T04:58:49;16.10;;;4.53;;
5054;SDS011;13829;48.990;8.346;2024-01-25T05:01:18;20.07;;;4.97;;
5054;SDS011;13829;48.990;8.346;2024-01-25T05:03:45;18.77;;;4.80;;
5054;SDS011;13829;48.990;8.346;2024-01-25T05:06:12;16.27;;;4.40;;
5054;SDS011;13829;48.990;8.346;2024-01-25T05:08:42;16.53;;;4.90;;
5054;SDS011;13829;48.990;8.346;2024-01-25T05:11:09;17.13;;;4.37;;
5054;SDS011;13829;48.990;8.346;2024-01-25T05:13:36;16.30;;;4.57;;
5054;SDS011;13829;48.990;8.346;2024-01-25T05:16:05;17.20;;;5.43;;
5054;SDS011;13829;48.990;8.346;2024-01-25T05:18:32;15.90;;;5.07;;
5054;SDS011;13829;48.990;8.346;2024-01-25T05:20:59;13.93;;;3.87;;
5054;SDS011;13829;48.990;8.346;2024-01-25T05:23:26;15.60;;;4.20;;
5054;SDS011;13829;48.990;8.346;2024-01-25T05:25:53;12.03;;;4.23;;
5054;SDS011;13829;48.990;8.346;2024-01-25T05:28:20;16.67;;;4.80;;
5054;SDS011;13829;48.990;8.346;2024-01-25T05:30:46;15.13;;;4.37;;
5054;SDS011;13829;48.990;8.346;2024-01-25T05:33:15;15.93;;;4.37;;
5054;SDS011;13829;48.990;8.346;2024-01-25T05:35:42;16.93;;;5.33;;
5054;SDS011;13829;48.990;8.346;2024-01-25T05:38:09;19.17;;;5.03;;
5054;SDS011;13829;48.990;8.346;2024-01-25T05:40:36;20.57;;;5.17;;
5054;SDS011;13829;48.990;8.346;2024-01-25T05:43:03;11.50;;;4.70;;
5054;SDS011;13829;48.990;8.346;2024-01-25T05:45:30;15.60;;;4.13;;
5054;SDS011;13829;48.990;8.346;2024-01-25T05:47:57;12.83;;;3.57;;
5054;SDS011;13829;48.990;8.346;2024-01-25T05:50:25;17.53;;;4.47;;
5054;SDS011;13829;48.990;8.346;2024-01-25T05:52:52;15.73;;;4.70;;
5054;SDS011;13829;48.990;8.346;2024-01-25T05:55:19;15.70;;;4.63;;
5054;SDS011;13829;48.990;8.346;2024-01-25T05:57:47;16.70;;;4.60;;
5054;SDS011;13829;48.990;8.346;2024-01-25T06:00:14;16.63;;;5.50;;
5054;SDS011;13829;48.990;8.346;2024-01-25T06:02:42;11.97;;;4.50;;
5054;SDS011;13829;48.990;8.346;2024-01-25T06:05:09;20.87;;;5.77;;
5054;SDS011;13829;48.990;8.346;2024-01-25T06:07:39;17.07;;;4.57;;
5054;SDS011;13829;48.990;8.346;2024-01-25T06:10:06;17.57;;;5.00;;
5054;SDS011;13829;48.990;8.346;2024-01-25T06:12:34;12.43;;;4.67;;
5054;SDS011;13829;48.990;8.346;2024-01-25T06:15:01;12.13;;;4.30;;
5054;SDS011;13829;48.990;8.346;2024-01-25T06:17:28;18.43;;;4.70;;
5054;SDS011;13829;48.990;8.346;2024-01-25T06:19:56;17.53;;;4.53;;
5054;SDS011;13829;48.990;8.346;2024-01-25T06:22:25;18.13;;;5.13;;
5054;SDS011;13829;48.990;8.346;2024-01-25T06:24:54;15.63;;;4.73;;
5054;SDS011;13829;48.990;8.346;2024-01-25T06:27:20;15.77;;;5.00;;
5054;SDS011;13829;48.990;8.346;2024-01-25T06:29:47;14.00;;;4.73;;
5054;SDS011;13829;48.990;8.346;2024-01-25T06:32:14;16.03;;;5.17;;
5054;SDS011;13829;48.990;8.346;2024-01-25T06:34:41;14.13;;;5.20;;
5054;SDS011;13829;48.990;8.346;2024-01-25T06:37:08;15.27;;;5.47;;
5054;SDS011;13829;48.990;8.346;2024-01-25T06:39:36;12.33;;;5.00;;
5054;SDS011;13829;48.990;8.346;2024-01-25T06:42:05;13.67;;;4.83;;
5054;SDS011;13829;48.990;8.346;2024-01-25T06:44:32;15.47;;;5.20;;
5054;SDS011;13829;48.990;8.346;2024-01-25T06:46:59;13.77;;;5.73;;
5054;SDS011;13829;48.990;8.346;2024-01-25T06:49:26;19.33;;;4.43;;
5054;SDS011;13829;48.990;8.346;2024-01-25T06:51:53;16.07;;;4.30;;
5054;SDS011;13829;48.990;8.346;2024-01-25T06:54:20;32.10;;;16.53;;
5054;SDS011;13829;48.990;8.346;2024-01-25T06:56:47;30.30;;;13.23;;
5054;SDS011;13829;48.990;8.346;2024-01-25T06:59:17;19.90;;;7.83;;
5054;SDS011;13829;48.990;8.346;2024-01-25T07:01:44;16.00;;;6.67;;
5054;SDS011;13829;48.990;8.346;2024-01-25T07:04:11;16.10;;;6.47;;
5054;SDS011;13829;48.990;8.346;2024-01-25T07:06:38;15.47;;;4.90;;
5054;SDS011;13829;48.990;8.346;2024-01-25T07:09:05;13.63;;;4.33;;
5054;SDS011;13829;48.990;8.346;2024-01-25T07:11:32;11.03;;;3.90;;
5054;SDS011;13829;48.990;8.346;2024-01-25T07:13:59;15.90;;;4.67;;
5054;SDS011;13829;48.990;8.346;2024-01-25T07:16:27;18.20;;;5.30;;
5054;SDS011;13829;48.990;8.346;2024-01-25T07:18:55;14.27;;;4.87;;
5054;SDS011;13829;48.990;8.346;2024-01-25T07:21:22;16.80;;;4.80;;
5054;SDS011;13829;48.990;8.346;2024-01-25T07:23:49;18.70;;;5.10;;
5054;SDS011;13829;48.990;8.346;2024-01-25T07:26:16;15.03;;;5.20;;
5054;SDS011;13829;48.990;8.346;2024-01-25T07:28:44;16.80;;;5.17;;
5054;SDS011;13829;48.990;8.346;2024-01-25T07:31:11;14.77;;;4.17;;
5054;SDS011;13829;48.990;8.346;2024-01-25T07:33:39;15.37;;;5.00;;
5054;SDS011;13829;48.990;8.346;2024-01-25T07:36:08;10.73;;;3.83;;
5054;SDS011;13829;48.990;8.346;2024-01-25T07:38:35;13.00;;;4.00;;
5054;SDS011;13829;48.990;8.346;2024-01-25T07:41:02;13.93;;;4.57;;
5054;SDS011;13829;48.990;8.346;2024-01-25T07:43:29;12.97;;;4.50;;
5054;SDS011;13829;48.990;8.346;2024-01-25T07:45:56;14.47;;;4.30;;
5054;SDS011;13829;48.990;8.346;2024-01-25T07:48:23;13.73;;;4.43;;
5054;SDS011;13829;48.990;8.346;2024-01-25T07:50:53;12.70;;;4.50;;
5054;SDS011;13829;48.990;8.346;2024-01-25T07:53:20;16.10;;;4.87;;
5054;SDS011;13829;48.990;8.346;2024-01-25T07:55:47;16.20;;;5.23;;
5054;SDS011;13829;48.990;8.346;2024-01-25T07:58:14;11.60;;;4.70;;
5054;SDS011;13829;48.990;8.346;2024-01-25T08:00:44;15.33;;;4.60;;
5054;SDS011;13829;48.990;8.346;2024-01-25T08:03:11;10.83;;;3.27;;
5054;SDS011;13829;48.990;8.346;2024-01-25T08:05:38;8.80;;;3.10;;
5054;SDS011;13829;48.990;8.346;2024-01-25T08:08:06;12.97;;;3.60;;
5054;SDS011;13829;48.990;8.346;2024-01-25T08:10:34;9.27;;;3.43;;
5054;SDS011;13829;48.990;8.346;2024-01-25T08:13:00;9.80;;;3.07;;
5054;SDS011;13829;48.990;8.346;2024-01-25T08:15:27;5.70;;;2.60;;
5054;SDS011;13829;48.990;8.346;2024-01-25T08:17:54;8.80;;;3.07;;
5054;SDS011;13829;48.990;8.346;2024-01-25T08:20:21;13.17;;;3.07;;
5054;SDS011;13829;48.990;8.346;2024-01-25T08:22:48;7.37;;;3.03;;
5054;SDS011;13829;48.990;8.346;2024-01-25T08:25:16;7.27;;;2.90;;
5054;SDS011;13829;48.990;8.346;2024-01-25T08:27:45;10.33;;;3.23;;
5054;SDS011;13829;48.990;8.346;2024-01-25T08:30:12;12.50;;;3.00;;
5054;SDS011;13829;48.990;8.346;2024-01-25T08:32:40;13.33;;;3.40;;
5054;SDS011;13829;48.990;8.346;2024-01-25T08:35:08;12.07;;;3.40;;
5054;SDS011;13829;48.990;8.346;2024-01-25T08:37:35;10.17;;;3.20;;
5054;SDS011;13829;48.990;8.346;2024-01-25T08:40:03;10.20;;;3.40;;
5054;SDS011;13829;48.990;8.346;2024-01-25T08:42:33;11.67;;;3.50;;
5054;SDS011;13829;48.990;8.346;2024-01-25T08:45:01;7.93;;;3.20;;
5054;SDS011;13829;48.990;8.346;2024-01-25T08:47:30;10.07;;;3.20;;
5054;SDS011;13829;48.990;8.346;2024-01-25T08:49:57;8.80;;;3.10;;
5054;SDS011;13829;48.990;8.346;2024-01-25T08:52:24;8.93;;;2.83;;
5054;SDS011;13829;48.990;8.346;2024-01-25T08:54:51;9.23;;;3.40;;
5054;SDS011;13829;48.990;8.346;2024-01-25T08:57:20;9.43;;;3.10;;
5054;SDS011;13829;48.990;8.346;2024-01-25T08:59:48;7.93;;;3.23;;
5054;SDS011;13829;48.990;8.346;2024-01-25T09:02:15;9.80;;;3.20;;
5054;SDS011;13829;48.990;8.346;2024-01-25T09:04:44;11.17;;;3.90;;
5054;SDS011;13829;48.990;8.346;2024-01-25T09:07:10;8.23;;;3.20;;
5054;SDS011;13829;48.990;8.346;2024-01-25T09:09:37;14.70;;;3.37;;
5054;SDS011;13829;48.990;8.346;2024-01-25T09:12:05;8.13;;;3.70;;
5054;SDS011;13829;48.990;8.346;2024-01-25T09:14:33;9.57;;;3.47;;
5054;SDS011;13829;48.990;8.346;2024-01-25T09:17:02;10.17;;;3.50;;
5054;SDS011;13829;48.990;8.346;2024-01-25T09:19:30;13.23;;;4.27;;
5054;SDS011;13829;48.990;8.346;2024-01-25T09:21:57;8.37;;;3.00;;
5054;SDS011;13829;48.990;8.346;2024-01-25T09:24:26;11.17;;;3.87;;
5054;SDS011;13829;48.990;8.346;2024-01-25T09:26:56;13.63;;;4.37;;
5054;SDS011;13829;48.990;8.346;2024-01-25T09:29:24;10.57;;;3.20;;
5054;SDS011;13829;48.990;8.346;2024-01-25T09:31:51;10.77;;;3.50;;
5054;SDS011;13829;48.990;8.346;2024-01-25T09:34:19;11.60;;;4.10;;
5054;SDS011;13829;48.990;8.346;2024-01-25T09:36:46;11.63;;;3.63;;
5054;SDS011;13829;48.990;8.346;2024-01-25T09:39:13;9.73;;;3.23;;
5054;SDS011;13829;48.990;8.346;2024-01-25T09:41:41;12.83;;;4.07;;
5054;SDS011;13829;48.990;8.346;2024-01-25T09:44:08;12.53;;;3.70;;
5054;SDS011;13829;48.990;8.346;2024-01-25T09:46:37;10.50;;;3.53;;
5054;SDS011;13829;48.990;8.346;2024-01-25T09:49:06;15.77;;;3.50;;
5054;SDS011;13829;48.990;8.346;2024-01-25T09:51:36;8.80;;;3.17;;
5054;SDS011;13829;48.990;8.346;2024-01-25T09:54:06;9.50;;;3.43;;
5054;SDS011;13829;48.990;8.346;2024-01-25T09:56:34;15.47;;;4.37;;
5054;SDS011;13829;48.990;8.346;2024-01-25T09:59:02;9.23;;;3.40;;
5054;SDS011;13829;48.990;8.346;2024-01-25T10:01:29;13.93;;;4.67;;
5054;SDS011;13829;48.990;8.346;2024-01-25T10:03:57;12.63;;;3.33;;
5054;SDS011;13829;48.990;8.346;2024-01-25T10:06:23;13.10;;;3.47;;
5054;SDS011;13829;48.990;8.346;2024-01-25T10:08:52;12.77;;;4.03;;
5054;SDS011;13829;48.990;8.346;2024-01-25T10:11:20;13.30;;;4.20;;
5054;SDS011;13829;48.990;8.346;2024-01-25T10:13:49;12.63;;;3.87;;
5054;SDS011;13829;48.990;8.346;2024-01-25T10:16:18;14.47;;;4.07;;
5054;SDS011;13829;48.990;8.346;2024-01-25T10:18:46;18.10;;;4.07;;
5054;SDS011;13829;48.990;8.346;2024-01-25T10:21:14;19.33;;;4.57;;
5054;SDS011;13829;48.990;8.346;2024-01-25T10:23:43;12.43;;;4.50;;
5054;SDS011;13829;48.990;8.346;2024-01-25T10:26:13;18.60;;;4.40;;
5054;SDS011;13829;48.990;8.346;2024-01-25T10:28:41;15.97;;;4.80;;
5054;SDS011;13829;48.990;8.346;2024-01-25T10:31:08;12.63;;;3.97;;
5054;SDS011;13829;48.990;8.346;2024-01-25T10:33:36;9.67;;;3.80;;
5054;SDS011;13829;48.990;8.346;2024-01-25T10:36:05;10.13;;;4.37;;
5054;SDS011;13829;48.990;8.346;2024-01-25T10:38:36;20.90;;;4.80;;
5054;SDS011;13829;48.990;8.346;2024-01-25T10:41:04;14.40;;;4.03;;
5054;SDS011;13829;48.990;8.346;2024-01-25T10:43:33;11.30;;;4.27;;
5054;SDS011;13829;48.990;8.346;2024-01-25T10:46:01;13.33;;;4.00;;
5054;SDS011;13829;48.990;8.346;2024-01-25T10:48:29;15.50;;;4.87;;
5054;SDS011;13829;48.990;8.346;2024-01-25T10:50:57;13.80;;;4.63;;
5054;SDS011;13829;48.990;8.346;2024-01-25T10:53:27;15.90;;;4.77;;
5054;SDS011;13829;48.990;8.346;2024-01-25T10:55:58;11.97;;;4.03;;
5054;SDS011;13829;48.990;8.346;2024-01-25T10:58:29;15.37;;;4.70;;
5054;SDS011;13829;48.990;8.346;2024-01-25T11:00:59;12.60;;;4.07;;
5054;SDS011;13829;48.990;8.346;2024-01-25T11:03:26;20.53;;;5.03;;
5054;SDS011;13829;48.990;8.346;2024-01-25T11:06:04;11.63;;;4.20;;
5054;SDS011;13829;48.990;8.346;2024-01-25T11:08:34;19.13;;;5.13;;
5054;SDS011;13829;48.990;8.346;2024-01-25T11:11:05;13.23;;;3.67;;
5054;SDS011;13829;48.990;8.346;2024-01-25T11:13:34;19.63;;;3.87;;
5054;SDS011;13829;48.990;8.346;2024-01-25T11:16:15;15.60;;;4.47;;
5054;SDS011;13829;48.990;8.346;2024-01-25T11:18:49;14.43;;;3.90;;
5054;SDS011;13829;48.990;8.346;2024-01-25T11:21:21;16.97;;;4.13;;
5054;SDS011;13829;48.990;8.346;2024-01-25T11:23:59;18.83;;;4.33;;
5054;SDS011;13829;48.990;8.346;2024-01-25T11:26:27;15.40;;;4.27;;
5054;SDS011;13829;48.990;8.346;2024-01-25T11:28:55;9.97;;;3.80;;
5054;SDS011;13829;48.990;8.346;2024-01-25T11:31:26;15.60;;;4.60;;
5054;SDS011;13829;48.990;8.346;2024-01-25T11:33:56;23.40;;;4.70;;
5054;SDS011;13829;48.990;8.346;2024-01-25T11:36:24;14.87;;;4.20;;
5054;SDS011;13829;48.990;8.346;2024-01-25T11:38:52;13.20;;;4.63;;
5054;SDS011;13829;48.990;8.346;2024-01-25T11:41:19;14.30;;;4.10;;
5054;SDS011;13829;48.990;8.346;2024-01-25T11:43:48;16.87;;;4.60;;
5054;SDS011;13829;48.990;8.346;2024-01-25T11:46:15;13.80;;;4.20;;
5054;SDS011;13829;48.990;8.346;2024-01-25T11:48:45;12.07;;;4.30;;
5054;SDS011;13829;48.990;8.346;2024-01-25T11:51:12;12.93;;;4.37;;
5054;SDS011;13829;48.990;8.346;2024-01-25T11:53:39;14.03;;;4.40;;
5054;SDS011;13829;48.990;8.346;2024-01-25T11:56:07;14.07;;;4.13;;
5054;SDS011;13829;48.990;8.346;2024-01-25T11:58:38;18.60;;;5.00;;
5054;SDS011;13829;48.990;8.346;2024-01-25T12:01:06;16.43;;;4.97;;
5054;SDS011;13829;48.990;8.346;2024-01-25T12:03:35;14.20;;;4.47;;
5054;SDS011;13829;48.990;8.346;2024-01-25T12:06:04;15.07;;;4.77;;
5054;SDS011;13829;48.990;8.346;2024-01-25T12:08:34;14.83;;;4.63;;
5054;SDS011;13829;48.990;8.346;2024-01-25T12:11:03;12.97;;;3.77;;
5054;SDS011;13829;48.990;8.346;2024-01-25T12:13:32;10.27;;;4.00;;
5054;SDS011;13829;48.990;8.346;2024-01-25T12:16:01;13.07;;;3.97;;
5054;SDS011;13829;48.990;8.346;2024-01-25T12:18:30;11.93;;;4.13;;
5054;SDS011;13829;48.990;8.346;2024-01-25T12:20:58;12.93;;;4.47;;
5054;SDS011;13829;48.990;8.346;2024-01-25T12:23:33;14.63;;;4.30;;
5054;SDS011;13829;48.990;8.346;2024-01-25T12:26:03;18.20;;;4.53;;
5054;SDS011;13829;48.990;8.346;2024-01-25T12:28:32;12.37;;;4.33;;
5054;SDS011;13829;48.990;8.346;2024-01-25T12:31:00;21.10;;;4.53;;
5054;SDS011;13829;48.990;8.346;2024-01-25T12:33:29;16.60;;;4.67;;
5054;SDS011;13829;48.990;8.346;2024-01-25T12:35:58;16.00;;;4.97;;
5054;SDS011;13829;48.990;8.346;2024-01-25T12:38:25;13.47;;;4.10;;
5054;SDS011;13829;48.990;8.346;2024-01-25T12:40:55;15.20;;;4.50;;
5054;SDS011;13829;48.990;8.346;2024-01-25T12:43:23;13.27;;;4.53;;
5054;SDS011;13829;48.990;8.346;2024-01-25T12:45:50;10.13;;;4.37;;
5054;SDS011;13829;48.990;8.346;2024-01-25T12:48:20;13.37;;;3.90;;
5054;SDS011;13829;48.990;8.346;2024-01-25T12:50:47;11.57;;;4.33;;
5054;SDS011;13829;48.990;8.346;2024-01-25T12:53:15;9.37;;;4.07;;
5054;SDS011;13829;48.990;8.346;2024-01-25T12:55:42;18.50;;;4.87;;
5054;SDS011;13829;48.990;8.346;2024-01-25T12:58:10;13.43;;;4.10;;
5054;SDS011;13829;48.990;8.346;2024-01-25T13:00:37;15.47;;;4.47;;
5054;SDS011;13829;48.990;8.346;2024-01-25T13:03:04;13.97;;;4.03;;
5054;SDS011;13829;48.990;8.346;2024-01-25T13:05:32;9.20;;;4.27;;
5054;SDS011;13829;48.990;8.346;2024-01-25T13:08:00;12.60;;;4.07;;
5054;SDS011;13829;48.990;8.346;2024-01-25T13:10:27;14.43;;;4.20;;
5054;SDS011;13829;48.990;8.346;2024-01-25T13:12:54;10.27;;;3.57;;
5054;SDS011;13829;48.990;8.346;2024-01-25T13:15:24;15.53;;;3.77;;
5054;SDS011;13829;48.990;8.346;2024-01-25T13:17:51;12.83;;;4.00;;
5054;SDS011;13829;48.990;8.346;2024-01-25T13:20:18;14.83;;;3.87;;
5054;SDS011;13829;48.990;8.346;2024-01-25T13:22:45;18.90;;;4.43;;
5054;SDS011;13829;48.990;8.346;2024-01-25T13:25:12;11.00;;;3.73;;
5054;SDS011;13829;48.990;8.346;2024-01-25T13:27:40;16.43;;;4.17;;
5054;SDS011;13829;48.990;8.346;2024-01-25T13:30:07;13.27;;;4.00;;
5054;SDS011;13829;48.990;8.346;2024-01-25T13:32:38;9.13;;;3.37;;
5054;SDS011;13829;48.990;8.346;2024-01-25T13:35:05;11.60;;;3.67;;
5054;SDS011;13829;48.990;8.346;2024-01-25T13:37:32;16.00;;;4.03;;
5054;SDS011;13829;48.990;8.346;2024-01-25T13:39:59;13.80;;;3.67;;
5054;SDS011;13829;48.990;8.346;2024-01-25T13:42:26;9.67;;;3.57;;
5054;SDS011;13829;48.990;8.346;2024-01-25T13:44:53;10.10;;;3.43;;
5054;SDS011;13829;48.990;8.346;2024-01-25T13:47:20;12.37;;;3.30;;
5054;SDS011;13829;48.990;8.346;2024-01-25T13:49:50;13.83;;;3.13;;
5054;SDS011;13829;48.990;8.346;2024-01-25T13:52:18;11.77;;;3.50;;
5054;SDS011;13829;48.990;8.346;2024-01-25T13:54:45;10.60;;;3.53;;
5054;SDS011;13829;48.990;8.346;2024-01-25T13:57:14;9.27;;;3.43;;
5054;SDS011;13829;48.990;8.346;2024-01-25T13:59:42;12.40;;;3.83;;
5054;SDS011;13829;48.990;8.346;2024-01-25T14:02:09;10.13;;;3.57;;
5054;SDS011;13829;48.990;8.346;2024-01-25T14:04:36;7.23;;;2.77;;
5054;SDS011;13829;48.990;8.346;2024-01-25T14:07:05;9.40;;;3.00;;
5054;SDS011;13829;48.990;8.346;2024-01-25T14:09:32;7.67;;;2.70;;
5054;SDS011;13829;48.990;8.346;2024-01-25T14:11:59;11.80;;;3.43;;
5054;SDS011;13829;48.990;8.346;2024-01-25T14:14:27;8.80;;;2.93;;
5054;SDS011;13829;48.990;8.346;2024-01-25T14:16:54;13.03;;;3.50;;
5054;SDS011;13829;48.990;8.346;2024-01-25T14:19:21;9.07;;;3.00;;
5054;SDS011;13829;48.990;8.346;2024-01-25T14:21:48;11.40;;;4.10;;
5054;SDS011;13829;48.990;8.346;2024-01-25T14:24:17;8.93;;;2.83;;
5054;SDS011;13829;48.990;8.346;2024-01-25T14:26:44;8.80;;;3.00;;
5054;SDS011;13829;48.990;8.346;2024-01-25T14:29:12;11.67;;;3.63;;
5054;SDS011;13829;48.990;8.346;2024-01-25T14:31:39;11.63;;;3.63;;
5054;SDS011;13829;48.990;8.346;2024-01-25T14:34:06;7.33;;;2.63;;
5054;SDS011;13829;48.990;8.346;2024-01-25T14:36:34;11.03;;;3.00;;
5054;SDS011;13829;48.990;8.346;2024-01-25T14:39:02;11.23;;;3.93;;
5054;SDS011;13829;48.990;8.346;2024-01-25T14:41:30;8.33;;;2.47;;
5054;SDS011;13829;48.990;8.346;2024-01-25T14:43:58;5.83;;;2.93;;
5054;SDS011;13829;48.990;8.346;2024-01-25T14:46:25;9.80;;;3.30;;
5054;SDS011;13829;48.990;8.346;2024-01-25T14:48:52;12.33;;;3.60;;
5054;SDS011;13829;48.990;8.346;2024-01-25T14:51:22;6.60;;;2.90;;
5054;SDS011;13829;48.990;8.346;2024-01-25T14:53:49;7.40;;;3.20;;